sensor_id;sensor_type;location;lat;lon;timestamp;P1;durP1;ratioP1;P2;durP2;ratioP2
64403;SDS011;50726;54.912;-8.392;2023-01-16T00:01:29;194.60;;;174.10;;
64403;SDS011;50726;54.912;-8.392;2023-01-16T00:03:57;203.48;;;181.55;;
64403;SDS011;50726;54.912;-8.392;2023-01-16T00:06:22;198.48;;;176.32;;
64403;SDS011;50726;54.912;-8.392;2023-01-16T00:08:48;204.02;;;181.70;;
64403;SDS011;50726;54.912;-8.392;2023-01-16T00:11:19;203.15;;;181.30;;
64403;SDS011;50726;54.912;-8.392;2023-01-16T00:13:45;204.38;;;176.77;;
64403;SDS011;50726;54.912;-8.392;2023-01-16T00:16:12;199.43;;;178.02;;
64403;SDS011;50726;54.912;-8.392;2023-01-16T00:18:44;204.82;;;182.32;;
64403;SDS011;50726;54.912;-8.392;2023-01-16T00:21:10;209.80;;;187.70;;
64403;SDS011;50726;54.912;-8.392;2023-01-16T00:23:36;198.25;;;177.40;;
64403;SDS011;50726;54.912;-8.392;2023-01-16T00:26:05;207.00;;;185.77;;
64403;SDS011;50726;54.912;-8.392;2023-01-16T00:28:32;198.75;;;177.95;;
64403;SDS011;50726;54.912;-8.392;2023-01-16T00:30:58;206.02;;;183.88;;
64403;SDS011;50726;54.912;-8.392;2023-01-16T00:33:23;208.15;;;186.57;;
64403;SDS011;50726;54.912;-8.392;2023-01-16T00:35:50;200.98;;;180.00;;
64403;SDS011;50726;54.912;-8.392;2023-01-16T00:38:16;202.00;;;181.30;;
64403;SDS011;50726;54.912;-8.392;2023-01-16T00:40:42;202.63;;;181.70;;
64403;SDS011;50726;54.912;-8.392;2023-01-16T00:43:08;207.70;;;186.02;;
64403;SDS011;50726;54.912;-8.392;2023-01-16T00:45:34;199.20;;;178.48;;
64403;SDS011;50726;54.912;-8.392;2023-01-16T00:47:59;201.25;;;180.35;;
64403;SDS011;50726;54.912;-8.392;2023-01-16T00:50:25;205.02;;;184.40;;
64403;SDS011;50726;54.912;-8.392;2023-01-16T00:52:51;201.55;;;180.15;;
64403;SDS011;50726;54.912;-8.392;2023-01-16T00:55:17;208.35;;;187.02;;
64403;SDS011;50726;54.912;-8.392;2023-01-16T00:57:42;202.40;;;181.48;;
64403;SDS011;50726;54.912;-8.392;2023-01-16T01:00:08;194.55;;;174.02;;
64403;SDS011;50726;54.912;-8.392;2023-01-16T01:02:35;189.63;;;167.10;;
64403;SDS011;50726;54.912;-8.392;2023-01-16T01:05:00;195.80;;;175.13;;
64403;SDS011;50726;54.912;-8.392;2023-01-16T01:07:26;189.07;;;168.73;;
64403;SDS011;50726;54.912;-8.392;2023-01-16T01:09:52;184.88;;;164.32;;
64403;SDS011;50726;54.912;-8.392;2023-01-16T01:12:18;189.70;;;169.68;;
64403;SDS011;50726;54.912;-8.392;2023-01-16T01:14:43;193.77;;;173.35;;
64403;SDS011;50726;54.912;-8.392;2023-01-16T01:17:09;190.52;;;169.57;;
64403;SDS011;50726;54.912;-8.392;2023-01-16T01:19:35;180.20;;;160.88;;
64403;SDS011;50726;54.912;-8.392;2023-01-16T01:22:00;181.93;;;158.45;;
64403;SDS011;50726;54.912;-8.392;2023-01-16T01:24:26;175.93;;;157.73;;
64403;SDS011;50726;54.912;-8.392;2023-01-16T01:26:52;168.95;;;152.38;;
64403;SDS011;50726;54.912;-8.392;2023-01-16T01:29:17;164.13;;;147.90;;
64403;SDS011;50726;54.912;-8.392;2023-01-16T01:31:43;164.13;;;146.43;;
64403;SDS011;50726;54.912;-8.392;2023-01-16T01:34:09;174.73;;;156.48;;
64403;SDS011;50726;54.912;-8.392;2023-01-16T01:36:34;175.38;;;157.68;;
64403;SDS011;50726;54.912;-8.392;2023-01-16T01:39:00;168.55;;;151.63;;
64403;SDS011;50726;54.912;-8.392;2023-01-16T01:41:26;172.45;;;154.95;;
64403;SDS011;50726;54.912;-8.392;2023-01-16T01:43:53;169.23;;;152.00;;
64403;SDS011;50726;54.912;-8.392;2023-01-16T01:46:21;179.80;;;161.30;;
64403;SDS011;50726;54.912;-8.392;2023-01-16T01:48:48;177.60;;;160.05;;
64403;SDS011;50726;54.912;-8.392;2023-01-16T01:51:23;176.30;;;159.40;;
64403;SDS011;50726;54.912;-8.392;2023-01-16T01:54:15;178.15;;;161.02;;
64403;SDS011;50726;54.912;-8.392;2023-01-16T01:56:49;170.32;;;152.07;;
64403;SDS011;50726;54.912;-8.392;2023-01-16T01:59:25;171.95;;;153.98;;
64403;SDS011;50726;54.912;-8.392;2023-01-16T02:01:57;153.05;;;140.57;;
64403;SDS011;50726;54.912;-8.392;2023-01-16T02:04:30;134.02;;;123.32;;
64403;SDS011;50726;54.912;-8.392;2023-01-16T02:07:03;141.63;;;130.25;;
64403;SDS011;50726;54.912;-8.392;2023-01-16T02:09:33;117.72;;;108.90;;
64403;SDS011;50726;54.912;-8.392;2023-01-16T02:12:04;119.53;;;109.95;;
64403;SDS011;50726;54.912;-8.392;2023-01-16T02:14:35;100.30;;;94.35;;
64403;SDS011;50726;54.912;-8.392;2023-01-16T02:17:06;88.47;;;83.47;;
64403;SDS011;50726;54.912;-8.392;2023-01-16T02:22:45;89.80;;;84.22;;
64403;SDS011;50726;54.912;-8.392;2023-01-16T02:25:43;108.80;;;102.85;;
64403;SDS011;50726;54.912;-8.392;2023-01-16T02:44:14;165.00;;;152.80;;
64403;SDS011;50726;54.912;-8.392;2023-01-16T02:49:37;159.80;;;148.23;;
64403;SDS011;50726;54.912;-8.392;2023-01-16T02:52:14;148.93;;;138.60;;
64403;SDS011;50726;54.912;-8.392;2023-01-16T02:54:50;165.23;;;151.98;;
64403;SDS011;50726;54.912;-8.392;2023-01-16T02:57:25;146.35;;;135.57;;
64403;SDS011;50726;54.912;-8.392;2023-01-16T02:59:56;134.07;;;125.47;;
64403;SDS011;50726;54.912;-8.392;2023-01-16T03:02:23;128.50;;;120.68;;
64403;SDS011;50726;54.912;-8.392;2023-01-16T03:04:51;133.82;;;125.60;;
64403;SDS011;50726;54.912;-8.392;2023-01-16T03:13:30;99.57;;;93.95;;
64403;SDS011;50726;54.912;-8.392;2023-01-16T03:27:14;155.43;;;145.00;;
64403;SDS011;50726;54.912;-8.392;2023-01-16T03:30:29;152.02;;;141.88;;
64403;SDS011;50726;54.912;-8.392;2023-01-16T05:32:59;193.85;;;181.57;;
64403;SDS011;50726;54.912;-8.392;2023-01-16T05:35:27;223.20;;;206.57;;
64403;SDS011;50726;54.912;-8.392;2023-01-16T05:38:00;221.65;;;204.20;;
64403;SDS011;50726;54.912;-8.392;2023-01-16T13:51:59;152.60;;;138.80;;
64403;SDS011;50726;54.912;-8.392;2023-01-16T13:54:37;155.52;;;141.27;;
64403;SDS011;50726;54.912;-8.392;2023-01-16T13:57:21;158.98;;;143.45;;
64403;SDS011;50726;54.912;-8.392;2023-01-16T14:05:49;158.85;;;144.68;;
64403;SDS011;50726;54.912;-8.392;2023-01-16T14:08:27;159.68;;;144.52;;
64403;SDS011;50726;54.912;-8.392;2023-01-16T14:23:30;157.23;;;142.63;;
64403;SDS011;50726;54.912;-8.392;2023-01-16T14:27:05;162.40;;;147.52;;
64403;SDS011;50726;54.912;-8.392;2023-01-16T14:31:51;154.75;;;140.05;;
64403;SDS011;50726;54.912;-8.392;2023-01-16T14:34:36;155.63;;;140.98;;
64403;SDS011;50726;54.912;-8.392;2023-01-16T14:37:27;153.48;;;138.63;;
64403;SDS011;50726;54.912;-8.392;2023-01-16T14:42:49;153.35;;;138.65;;
64403;SDS011;50726;54.912;-8.392;2023-01-16T14:45:39;153.40;;;138.90;;
64403;SDS011;50726;54.912;-8.392;2023-01-16T14:57:02;154.95;;;139.55;;
64403;SDS011;50726;54.912;-8.392;2023-01-16T15:00:10;152.38;;;138.25;;
64403;SDS011;50726;54.912;-8.392;2023-01-16T15:03:00;152.85;;;138.05;;
64403;SDS011;50726;54.912;-8.392;2023-01-16T15:20:20;155.68;;;140.57;;
64403;SDS011;50726;54.912;-8.392;2023-01-16T15:25:59;158.27;;;143.60;;
64403;SDS011;50726;54.912;-8.392;2023-01-16T15:28:36;157.68;;;143.32;;
64403;SDS011;50726;54.912;-8.392;2023-01-16T15:39:25;150.20;;;137.10;;
64403;SDS011;50726;54.912;-8.392;2023-01-16T15:42:09;152.70;;;138.90;;
64403;SDS011;50726;54.912;-8.392;2023-01-16T15:48:15;157.40;;;143.15;;
64403;SDS011;50726;54.912;-8.392;2023-01-16T15:50:59;155.30;;;141.25;;
64403;SDS011;50726;54.912;-8.392;2023-01-16T15:58:42;145.88;;;132.98;;
64403;SDS011;50726;54.912;-8.392;2023-01-16T16:01:08;154.10;;;139.90;;
64403;SDS011;50726;54.912;-8.392;2023-01-16T16:03:37;151.35;;;137.35;;
64403;SDS011;50726;54.912;-8.392;2023-01-16T16:06:07;153.97;;;140.27;;
64403;SDS011;50726;54.912;-8.392;2023-01-16T16:08:36;153.10;;;138.88;;
64403;SDS011;50726;54.912;-8.392;2023-01-16T16:11:08;157.10;;;141.80;;
64403;SDS011;50726;54.912;-8.392;2023-01-16T16:13:55;160.20;;;145.10;;
64403;SDS011;50726;54.912;-8.392;2023-01-16T16:16:23;159.82;;;144.05;;
64403;SDS011;50726;54.912;-8.392;2023-01-16T16:19:09;176.68;;;149.20;;
64403;SDS011;50726;54.912;-8.392;2023-01-16T16:21:54;156.45;;;139.98;;
64403;SDS011;50726;54.912;-8.392;2023-01-16T16:24:41;158.15;;;142.50;;
64403;SDS011;50726;54.912;-8.392;2023-01-16T16:27:11;159.80;;;144.75;;
64403;SDS011;50726;54.912;-8.392;2023-01-16T16:29:41;153.15;;;139.50;;
64403;SDS011;50726;54.912;-8.392;2023-01-16T16:32:17;161.20;;;147.30;;
64403;SDS011;50726;54.912;-8.392;2023-01-16T16:34:50;161.80;;;147.70;;
64403;SDS011;50726;54.912;-8.392;2023-01-16T16:37:18;162.82;;;148.48;;
64403;SDS011;50726;54.912;-8.392;2023-01-16T16:39:47;159.98;;;146.18;;
64403;SDS011;50726;54.912;-8.392;2023-01-16T16:47:35;162.25;;;148.20;;
64403;SDS011;50726;54.912;-8.392;2023-01-16T16:52:48;167.90;;;153.07;;
64403;SDS011;50726;54.912;-8.392;2023-01-16T16:55:31;168.88;;;153.88;;
64403;SDS011;50726;54.912;-8.392;2023-01-16T16:58:02;173.02;;;156.82;;
64403;SDS011;50726;54.912;-8.392;2023-01-16T17:00:30;166.63;;;151.02;;
64403;SDS011;50726;54.912;-8.392;2023-01-16T17:03:04;161.57;;;147.10;;
64403;SDS011;50726;54.912;-8.392;2023-01-16T17:05:43;160.18;;;145.77;;
64403;SDS011;50726;54.912;-8.392;2023-01-16T17:08:15;160.63;;;146.10;;
64403;SDS011;50726;54.912;-8.392;2023-01-16T17:10:53;162.80;;;147.95;;
64403;SDS011;50726;54.912;-8.392;2023-01-16T17:13:20;166.35;;;150.77;;
64403;SDS011;50726;54.912;-8.392;2023-01-16T17:15:48;167.88;;;152.93;;
64403;SDS011;50726;54.912;-8.392;2023-01-16T17:18:18;162.32;;;147.38;;
64403;SDS011;50726;54.912;-8.392;2023-01-16T17:20:44;167.05;;;151.95;;
64403;SDS011;50726;54.912;-8.392;2023-01-16T17:23:14;159.45;;;145.10;;
64403;SDS011;50726;54.912;-8.392;2023-01-16T17:25:42;153.63;;;139.52;;
64403;SDS011;50726;54.912;-8.392;2023-01-16T17:28:10;161.25;;;146.45;;
64403;SDS011;50726;54.912;-8.392;2023-01-16T17:30:38;158.40;;;143.68;;
64403;SDS011;50726;54.912;-8.392;2023-01-16T17:33:17;154.32;;;140.70;;
64403;SDS011;50726;54.912;-8.392;2023-01-16T17:35:48;158.93;;;144.73;;
64403;SDS011;50726;54.912;-8.392;2023-01-16T17:38:42;157.73;;;143.65;;
64403;SDS011;50726;54.912;-8.392;2023-01-16T17:41:16;159.95;;;145.57;;
64403;SDS011;50726;54.912;-8.392;2023-01-16T17:43:55;158.52;;;144.45;;
64403;SDS011;50726;54.912;-8.392;2023-01-16T17:46:39;162.35;;;147.73;;
64403;SDS011;50726;54.912;-8.392;2023-01-16T17:49:07;157.88;;;143.57;;
64403;SDS011;50726;54.912;-8.392;2023-01-16T17:51:46;160.15;;;145.65;;
64403;SDS011;50726;54.912;-8.392;2023-01-16T17:54:28;162.57;;;147.48;;
64403;SDS011;50726;54.912;-8.392;2023-01-16T17:57:13;159.65;;;144.77;;
64403;SDS011;50726;54.912;-8.392;2023-01-16T17:59:39;160.73;;;145.48;;
64403;SDS011;50726;54.912;-8.392;2023-01-16T18:02:07;159.23;;;144.93;;
64403;SDS011;50726;54.912;-8.392;2023-01-16T18:04:38;157.45;;;143.05;;
64403;SDS011;50726;54.912;-8.392;2023-01-16T18:07:16;157.63;;;143.18;;
